createdAt,value
2023-03-28T00:01:53.003Z,9.59
2023-03-28T00:07:57.803Z,11.00
2023-03-28T00:14:07.590Z,8.99
2023-03-28T00:20:19.137Z,7.88
2023-03-28T00:26:28.769Z,8.29
2023-03-28T00:32:30.789Z,8.84
2023-03-28T00:38:38.330Z,8.30
2023-03-28T00:44:54.781Z,7.83
2023-03-28T00:51:03.256Z,7.86
2023-03-28T00:57:15.854Z,10.80
2023-03-28T01:03:27.274Z,9.39
2023-03-28T01:09:30.002Z,7.68
2023-03-28T01:15:33.533Z,8.55
2023-03-28T01:21:36.272Z,9.02
2023-03-28T01:36:34.038Z,10.06
2023-03-28T01:43:02.610Z,8.35
2023-03-28T01:49:08.842Z,9.39
2023-03-28T01:55:13.913Z,7.64
2023-03-28T02:01:27.033Z,6.90
2023-03-28T02:07:33.139Z,7.25
2023-03-28T02:14:06.522Z,6.78
2023-03-28T02:20:32.936Z,6.80
2023-03-28T02:26:47.767Z,6.91
2023-03-28T02:33:07.991Z,6.90
2023-03-28T02:39:30.228Z,7.41
2023-03-28T02:46:03.861Z,7.18
2023-03-28T02:52:22.918Z,6.53
2023-03-28T02:58:40.169Z,6.51
2023-03-28T03:04:41.664Z,6.24
2023-03-28T03:10:43.250Z,6.15
2023-03-28T03:16:48.193Z,6.88
2023-03-28T03:23:00.133Z,6.92
2023-03-28T03:29:05.894Z,6.70
2023-03-28T03:35:07.869Z,6.89
2023-03-28T03:41:09.363Z,7.57
2023-03-28T03:47:10.979Z,7.08
2023-03-28T03:53:12.522Z,7.57
2023-03-28T03:59:28.783Z,8.52
2023-03-28T04:05:30.720Z,8.25
2023-03-28T04:11:44.627Z,8.54
2023-03-28T04:17:49.501Z,8.22
2023-03-28T04:23:54.010Z,9.46
2023-03-28T04:30:06.763Z,8.90
2023-03-28T04:36:29.038Z,8.44
2023-03-28T04:42:36.801Z,9.94
2023-03-28T04:48:49.657Z,9.20
2023-03-28T04:55:01.335Z,9.04
2023-03-28T05:01:03.465Z,8.90
2023-03-28T05:07:25.697Z,8.82
2023-03-28T05:13:27.522Z,9.12
2023-03-28T05:19:39.164Z,9.38
2023-03-28T05:25:52.095Z,9.11
2023-03-28T05:31:54.411Z,9.09
2023-03-28T05:38:05.640Z,9.62
2023-03-28T05:44:07.541Z,9.73
2023-03-28T05:50:30.762Z,9.91
2023-03-28T05:56:37.200Z,10.92
2023-03-28T06:02:39.636Z,8.67
2023-03-28T06:08:41.312Z,7.67
2023-03-28T06:14:43.744Z,7.57
2023-03-28T06:20:55.283Z,7.78
2023-03-28T06:26:57.839Z,7.87
2023-03-28T06:32:59.991Z,8.94
2023-03-28T06:39:01.941Z,10.54
2023-03-28T06:45:05.325Z,9.39
2023-03-28T06:51:41.376Z,9.26
2023-03-28T06:57:43.364Z,9.87
2023-03-28T07:04:01.425Z,10.61
2023-03-28T07:10:03.968Z,10.85
2023-03-28T07:16:15.891Z,11.08
2023-03-28T07:22:17.803Z,11.36
2023-03-28T07:28:19.942Z,13.74
2023-03-28T07:34:21.505Z,11.82
2023-03-28T07:40:23.859Z,11.23
2023-03-28T07:46:25.709Z,11.99
2023-03-28T07:52:28.256Z,10.56
2023-03-28T07:58:29.879Z,9.41
2023-03-28T08:04:34.252Z,8.53
2023-03-28T08:10:40.436Z,8.76
2023-03-28T08:16:43.716Z,9.43
2023-03-28T08:22:45.829Z,9.90
2023-03-28T08:29:10.817Z,10.53
2023-03-28T08:35:13.324Z,10.25
2023-03-28T08:41:32.032Z,9.75
2023-03-28T08:47:43.108Z,9.08
2023-03-28T08:53:51.006Z,9.19
2023-03-28T09:00:09.578Z,8.20
2023-03-28T09:06:28.116Z,9.26
2023-03-28T09:12:51.447Z,9.58
2023-03-28T09:19:14.789Z,9.56
2023-03-28T09:25:21.207Z,9.61
2023-03-28T09:31:27.285Z,8.56
2023-03-28T09:37:41.305Z,9.65
2023-03-28T09:43:58.007Z,8.33
2023-03-28T09:50:15.789Z,9.07
2023-03-28T09:56:38.951Z,8.89
2023-03-28T10:02:52.200Z,9.41
2023-03-28T10:09:19.054Z,9.21
2023-03-28T10:15:38.602Z,9.84
2023-03-28T10:22:02.534Z,10.31
2023-03-28T10:28:14.134Z,9.77
2023-03-28T10:34:28.433Z,10.30
2023-03-28T10:40:37.462Z,10.46
2023-03-28T10:46:45.374Z,11.77
2023-03-28T10:52:59.792Z,11.20
2023-03-28T10:59:19.876Z,10.17
2023-03-28T11:05:37.064Z,9.50
2023-03-28T11:12:28.643Z,10.04
2023-03-28T11:18:47.840Z,10.44
2023-03-28T11:25:23.392Z,11.09
2023-03-28T11:32:30.132Z,11.19
2023-03-28T11:38:42.327Z,11.79
2023-03-28T11:44:53.614Z,10.78
2023-03-28T11:51:05.811Z,10.18
2023-03-28T11:57:24.188Z,10.02
2023-03-28T12:03:58.283Z,10.44
2023-03-28T12:10:06.343Z,9.75
2023-03-28T12:16:16.037Z,11.25
2023-03-28T12:22:32.091Z,10.58
2023-03-28T12:28:42.894Z,11.41
2023-03-28T12:34:53.078Z,12.91
2023-03-28T12:41:05.882Z,12.69
2023-03-28T12:47:24.003Z,10.88
2023-03-28T12:53:30.813Z,9.75
2023-03-28T12:59:43.676Z,10.18
2023-03-28T13:06:02.004Z,10.80
2023-03-28T13:12:23.583Z,10.59
2023-03-28T13:18:29.078Z,8.97
2023-03-28T13:24:32.867Z,8.59
2023-03-28T13:30:34.299Z,8.47
2023-03-28T13:36:35.875Z,9.65
2023-03-28T13:42:37.411Z,11.03
2023-03-28T13:49:19.223Z,11.19
2023-03-28T13:55:23.598Z,11.06
2023-03-28T14:01:33.858Z,10.03
2023-03-28T14:07:35.483Z,-71.97
2023-03-28T14:13:37.199Z,-128.00
2023-03-28T14:19:59.522Z,-128.00
2023-03-28T14:26:02.660Z,-128.00
2023-03-28T14:32:54.463Z,-128.00
2023-03-28T14:39:11.787Z,-128.00
2023-03-28T14:45:17.105Z,-128.00
2023-03-28T14:51:21.882Z,-128.00
2023-03-28T14:57:25.582Z,-128.00
2023-03-28T15:03:33.180Z,-128.00
2023-03-28T15:09:35.418Z,-128.00
2023-03-28T15:15:45.349Z,-128.00
2023-03-28T15:21:58.278Z,-128.00
2023-03-28T15:28:03.062Z,-128.00
2023-03-28T15:34:10.285Z,-128.00
2023-03-28T15:40:17.751Z,-128.00
2023-03-28T15:46:29.189Z,-128.00
2023-03-28T15:52:31.291Z,-128.00
2023-03-28T15:58:33.953Z,-128.00
2023-03-28T16:04:35.844Z,-128.00
2023-03-28T16:10:37.352Z,-128.00
2023-03-28T16:16:57.658Z,-128.00
2023-03-28T16:23:12.524Z,-128.00
2023-03-28T16:29:14.191Z,-128.00
2023-03-28T16:35:15.779Z,-128.00
2023-03-28T16:41:17.525Z,-128.00
2023-03-28T16:47:19.271Z,-128.00
2023-03-28T16:53:23.263Z,-128.00
2023-03-28T16:59:25.055Z,-128.00
2023-03-28T17:05:29.947Z,-128.00
2023-03-28T17:11:32.414Z,-128.00
2023-03-28T17:17:39.257Z,-128.00
2023-03-28T17:23:41.444Z,-128.00
2023-03-28T17:29:43.318Z,-128.00
2023-03-28T17:35:45.415Z,-128.00
2023-03-28T17:41:47.088Z,-128.00
2023-03-28T17:47:53.414Z,-128.00
2023-03-28T17:53:55.347Z,-128.00
2023-03-28T17:59:57.129Z,-128.00
2023-03-28T18:06:01.761Z,-128.00
2023-03-28T18:12:03.570Z,-128.00
2023-03-28T18:18:05.528Z,-128.00
2023-03-28T18:24:07.301Z,-128.00
2023-03-28T18:30:09.717Z,-128.00
2023-03-28T18:36:12.517Z,-128.00
2023-03-28T18:42:14.704Z,-128.00
2023-03-28T18:48:17.727Z,-128.00
2023-03-28T18:54:21.045Z,-128.00
2023-03-28T19:00:23.130Z,-128.00
2023-03-28T19:06:24.992Z,-128.00
2023-03-28T19:12:26.672Z,-128.00
2023-03-28T19:18:32.764Z,-128.00
2023-03-28T19:24:37.633Z,-128.00
2023-03-28T19:30:39.465Z,-128.00
2023-03-28T19:36:49.644Z,-128.00
2023-03-28T19:42:57.705Z,-128.00
2023-03-28T19:49:01.176Z,-128.00
2023-03-28T19:55:03.652Z,-128.00
2023-03-28T20:01:07.563Z,-128.00
2023-03-28T20:07:09.330Z,-128.00
2023-03-28T20:13:12.827Z,-128.00
2023-03-28T20:19:17.266Z,-128.00
2023-03-28T20:25:19.337Z,-17.50
2023-03-28T20:31:21.826Z,10.17
2023-03-28T20:37:29.406Z,10.30
2023-03-28T20:43:40.084Z,9.58
2023-03-28T20:49:45.540Z,13.93
2023-03-28T20:56:04.169Z,13.19
2023-03-28T21:02:10.163Z,10.27
2023-03-28T21:08:15.077Z,10.02
2023-03-28T21:14:17.412Z,9.79
2023-03-28T21:20:19.187Z,9.54
2023-03-28T21:26:22.217Z,9.72
2023-03-28T21:32:27.593Z,9.51
2023-03-28T21:38:35.506Z,9.40
2023-03-28T21:44:37.553Z,9.27
2023-03-28T21:50:47.888Z,9.61
2023-03-28T21:56:58.379Z,9.45
2023-03-28T22:03:00.420Z,9.22
2023-03-28T22:09:04.337Z,9.02
2023-03-28T22:15:07.105Z,9.07
2023-03-28T22:21:13.212Z,8.56
2023-03-28T22:27:14.722Z,8.79
2023-03-28T22:33:16.182Z,8.87
2023-03-28T22:39:21.095Z,9.08
2023-03-28T22:45:23.844Z,8.74
2023-03-28T22:51:26.937Z,8.59
2023-03-28T22:57:28.387Z,8.47
2023-03-28T23:03:30.375Z,8.23
2023-03-28T23:09:32.300Z,7.70
2023-03-28T23:15:34.411Z,7.90
2023-03-28T23:21:36.271Z,7.97
2023-03-28T23:27:38.480Z,7.78
2023-03-28T23:33:40.281Z,7.54
2023-03-28T23:39:41.928Z,7.52
2023-03-28T23:45:44.089Z,7.36
2023-03-28T23:51:45.823Z,6.88
2023-03-28T23:57:47.391Z,7.35
